Gordon Reid — CGBR — position and weather

sailwx.info

Track history (hours):
 
Tides and Currents Weather Stations Pressure Air Temp Water Temp Dewpoint Dewpoint Depression Visibility Wind Speed Wind Dir Waves Ship Positions

Gordon Reid

Last reported at 2015-Jun-21 02:00 UTC. Time now 2015-Jul-04 13:35 UTC.
Position N 52°36' W 128°48'.
Warning: this ship's position is 13 days out of date.

Length 49.95 m; beam 11 m; draft 5.4 m.

Type: SAR. MMSI: 316094000.

Wind from 320 at 9 knots

Barometer 1020.4 mb
Air temperature 14.3 ° C
Dewpoint 14.3 ° C

Date/timePositionNaut miles runAvg speedWind from/ knotsBaromVisibWave heightAir tempDewpointWater temp
2015-Jun-21 02:00N 52°36' W 128°48'83 4.7 320 / 91020.4 14.314.3
2015-Jun-20 08:17N 51°20' W 127°51'5 6.6
2015-Jun-20 07:28N 51°15' W 127°52'6 6.4
2015-Jun-20 06:33N 51°09' W 127°49'6 6.2
2015-Jun-20 05:33N 51°03' W 127°48'6 5.5
2015-Jun-20 04:33N 50°58' W 127°46'5 5.0
2015-Jun-20 03:32N 50°54' W 127°51'2 2.1
2015-Jun-20 02:28N 50°51' W 127°52'0 0.0
2015-Jun-20 01:28N 50°51' W 127°52'0 0.0
2015-Jun-19 20:28N 50°51' W 127°52'0 0.0
2015-Jun-19 19:22N 50°51' W 127°52'0 0.0
2015-Jun-19 18:10N 50°51' W 127°52'0 0.0
2015-Jun-19 17:22N 50°51' W 127°52'0 0.0
2015-Jun-19 16:34N 50°51' W 127°52'0 0.0
2015-Jun-19 15:34N 50°51' W 127°52'0 0.0
2015-Jun-19 14:28N 50°51' W 127°52'0 0.0
2015-Jun-19 13:34N 50°51' W 127°52'0 0.0
2015-Jun-19 12:28N 50°51' W 127°52'0 0.0
2015-Jun-19 11:34N 50°51' W 127°52'0 0.0
2015-Jun-19 10:28N 50°51' W 127°52'0 0.0
2015-Jun-19 09:34N 50°51' W 127°52'0 0.0
2015-Jun-19 08:22N 50°51' W 127°52'0 0.0
2015-Jun-19 07:22N 50°51' W 127°52'0 0.0
2015-Jun-19 06:22N 50°51' W 127°52'0 0.0
2015-Jun-19 05:28N 50°51' W 127°52'0 0.0
2015-Jun-19 03:34N 50°51' W 127°52'6 5.6
2015-Jun-19 02:33N 50°50' W 127°43'1110.8
2015-Jun-19 01:33N 50°45' W 127°28'2 1.5
2015-Jun-19 00:29N 50°43' W 127°29'0 0.0
2015-Jun-18 23:23N 50°43' W 127°29'0 0.0
2015-Jun-18 22:29N 50°43' W 127°29'0 0.0
2015-Jun-18 21:29N 50°43' W 127°29'0 0.0
2015-Jun-18 00:29N 50°43' W 127°29'0 0.0
2015-Jun-17 22:29N 50°43' W 127°29'0 0.0
2015-Jun-17 21:29N 50°43' W 127°29'0 0.0
2015-Jun-17 20:29N 50°43' W 127°29'0 0.0
2015-Jun-17 19:32N 50°43' W 127°29'2 0.1
2015-Jun-17 03:33N 50°46' W 127°28'1111.1
2015-Jun-17 02:34N 50°50' W 127°44'76 3.3
2015-Jun-16 03:27N 49°39' W 126°59'910.2
2015-Jun-16 02:33N 49°31' W 126°53'10 9.9
2015-Jun-16 01:33N 49°23' W 126°45'1010.0
2015-Jun-16 00:33N 49°14' W 126°38'9 8.7
2015-Jun-15 23:33N 49°09' W 126°27'10 9.8
2015-Jun-15 22:33N 49°07' W 126°12'9 9.4
2015-Jun-15 21:33N 49°05' W 125°59'9 9.1
2015-Jun-15 20:33N 48°59' W 125°47'6 5.8
2015-Jun-15 19:33N 48°55' W 125°42'3 2.9
2015-Jun-15 18:34N 48°56' W 125°46'5 5.4
2015-Jun-15 17:33N 48°57' W 125°54'5 5.3
2015-Jun-15 16:33N 48°58' W 126°02'1 0.6
2015-Jun-15 15:34N 48°58' W 126°02'2 1.7
2015-Jun-15 14:33N 48°57' W 126°00'1 0.9
2015-Jun-15 13:33N 48°56' W 126°00'5 4.5
2015-Jun-15 12:34N 48°57' W 126°07'4 3.9
2015-Jun-15 11:34N 48°57' W 126°13'3 3.1
2015-Jun-15 10:33N 48°58' W 126°18'3 3.4
2015-Jun-15 09:33N 48°59' W 126°23'4 3.7
2015-Jun-15 08:33N 49°01' W 126°27'5 4.8
2015-Jun-15 07:33N 49°04' W 126°33'5 5.3
2015-Jun-15 06:33N 49°07' W 126°39'5 5.1
2015-Jun-15 05:33N 49°10' W 126°46'7 6.8
2015-Jun-15 04:33N 49°10' W 126°57'  
2015-Jun-12 20:33N 50°53' W 128°10'5 4.3
2015-Jun-12 19:28N 50°54' W 128°03'9 9.3
2015-Jun-12 18:33N 50°52' W 127°50'1111.4
2015-Jun-12 17:33N 50°48' W 127°33'4 3.8
2015-Jun-12 16:33N 50°46' W 127°28'2 2.1
2015-Jun-12 15:31N 50°44' W 127°28'1 0.1
2015-Jun-12 06:16N 50°43' W 127°29'0 0.0
2015-Jun-12 04:22N 50°43' W 127°29'0 0.0
2015-Jun-12 03:16N 50°43' W 127°29'0 0.0
2015-Jun-12 02:22N 50°43' W 127°29'0 0.0
2015-Jun-12 01:22N 50°43' W 127°29'1 0.1
2015-Jun-11 18:19N 50°43' W 127°28'1 0.7
2015-Jun-11 17:31N 50°43' W 127°28'0 0.0
2015-Jun-11 16:31N 50°43' W 127°28'0 0.4
2015-Jun-11 15:33N 50°44' W 127°28'9 8.7
2015-Jun-11 14:33N 50°49' W 127°38'2 1.7
2015-Jun-11 13:28N 50°51' W 127°40'0 0.0
2015-Jun-11 12:22N 50°51' W 127°40'0 0.0
2015-Jun-11 11:28N 50°51' W 127°40'0 0.0
2015-Jun-11 10:28N 50°51' W 127°40'0 0.0
2015-Jun-11 09:28N 50°51' W 127°40'0 0.0
2015-Jun-11 08:16N 50°51' W 127°40'0 0.0
2015-Jun-11 07:28N 50°51' W 127°40'0 0.0
2015-Jun-11 06:28N 50°51' W 127°40'0 0.0
2015-Jun-11 05:28N 50°51' W 127°40'0 0.0
2015-Jun-11 04:28N 50°51' W 127°40'0 0.0
2015-Jun-11 03:28N 50°51' W 127°40'0 0.0
2015-Jun-11 02:28N 50°51' W 127°40'  
Track history (hours):
 
Tides and Currents Weather Stations Pressure Air Temp Water Temp Dewpoint Dewpoint Depression Visibility Wind Speed Wind Dir Waves Ship Positions

Gordon Reid

Last reported at 2015-Jun-21 02:00 UTC. Time now 2015-Jul-04 13:35 UTC.
Position N 52°36' W 128°48'.
Warning: this ship's position is 13 days out of date.

Length 49.95 m; beam 11 m; draft 5.4 m.

Type: SAR. MMSI: 316094000.

Wind from 320 at 9 knots

Barometer 1020.4 mb
Air temperature 14.3 ° C
Dewpoint 14.3 ° C

Date/timePositionNaut miles runAvg speedWind from/ knotsBaromVisibWave heightAir tempDewpointWater temp
2015-Jun-21 02:00N 52°36' W 128°48'83 4.7 320 / 91020.4 14.314.3
2015-Jun-20 08:17N 51°20' W 127°51'5 6.6
2015-Jun-20 07:28N 51°15' W 127°52'6 6.4
2015-Jun-20 06:33N 51°09' W 127°49'6 6.2
2015-Jun-20 05:33N 51°03' W 127°48'6 5.5
2015-Jun-20 04:33N 50°58' W 127°46'5 5.0
2015-Jun-20 03:32N 50°54' W 127°51'2 2.1
2015-Jun-20 02:28N 50°51' W 127°52'0 0.0
2015-Jun-20 01:28N 50°51' W 127°52'0 0.0
2015-Jun-19 20:28N 50°51' W 127°52'0 0.0
2015-Jun-19 19:22N 50°51' W 127°52'0 0.0
2015-Jun-19 18:10N 50°51' W 127°52'0 0.0
2015-Jun-19 17:22N 50°51' W 127°52'0 0.0
2015-Jun-19 16:34N 50°51' W 127°52'0 0.0
2015-Jun-19 15:34N 50°51' W 127°52'0 0.0
2015-Jun-19 14:28N 50°51' W 127°52'0 0.0
2015-Jun-19 13:34N 50°51' W 127°52'0 0.0
2015-Jun-19 12:28N 50°51' W 127°52'0 0.0
2015-Jun-19 11:34N 50°51' W 127°52'0 0.0
2015-Jun-19 10:28N 50°51' W 127°52'0 0.0
2015-Jun-19 09:34N 50°51' W 127°52'0 0.0
2015-Jun-19 08:22N 50°51' W 127°52'0 0.0
2015-Jun-19 07:22N 50°51' W 127°52'0 0.0
2015-Jun-19 06:22N 50°51' W 127°52'0 0.0
2015-Jun-19 05:28N 50°51' W 127°52'0 0.0
2015-Jun-19 03:34N 50°51' W 127°52'6 5.6
2015-Jun-19 02:33N 50°50' W 127°43'1110.8
2015-Jun-19 01:33N 50°45' W 127°28'2 1.5
2015-Jun-19 00:29N 50°43' W 127°29'0 0.0
2015-Jun-18 23:23N 50°43' W 127°29'0 0.0
2015-Jun-18 22:29N 50°43' W 127°29'0 0.0
2015-Jun-18 21:29N 50°43' W 127°29'0 0.0
2015-Jun-18 00:29N 50°43' W 127°29'0 0.0
2015-Jun-17 22:29N 50°43' W 127°29'0 0.0
2015-Jun-17 21:29N 50°43' W 127°29'0 0.0
2015-Jun-17 20:29N 50°43' W 127°29'0 0.0
2015-Jun-17 19:32N 50°43' W 127°29'2 0.1
2015-Jun-17 03:33N 50°46' W 127°28'1111.1
2015-Jun-17 02:34N 50°50' W 127°44'76 3.3
2015-Jun-16 03:27N 49°39' W 126°59'910.2
2015-Jun-16 02:33N 49°31' W 126°53'10 9.9
2015-Jun-16 01:33N 49°23' W 126°45'1010.0
2015-Jun-16 00:33N 49°14' W 126°38'9 8.7
2015-Jun-15 23:33N 49°09' W 126°27'10 9.8
2015-Jun-15 22:33N 49°07' W 126°12'9 9.4
2015-Jun-15 21:33N 49°05' W 125°59'9 9.1
2015-Jun-15 20:33N 48°59' W 125°47'6 5.8
2015-Jun-15 19:33N 48°55' W 125°42'3 2.9
2015-Jun-15 18:34N 48°56' W 125°46'5 5.4
2015-Jun-15 17:33N 48°57' W 125°54'5 5.3
2015-Jun-15 16:33N 48°58' W 126°02'1 0.6
2015-Jun-15 15:34N 48°58' W 126°02'2 1.7
2015-Jun-15 14:33N 48°57' W 126°00'1 0.9
2015-Jun-15 13:33N 48°56' W 126°00'5 4.5
2015-Jun-15 12:34N 48°57' W 126°07'4 3.9
2015-Jun-15 11:34N 48°57' W 126°13'3 3.1
2015-Jun-15 10:33N 48°58' W 126°18'3 3.4
2015-Jun-15 09:33N 48°59' W 126°23'4 3.7
2015-Jun-15 08:33N 49°01' W 126°27'5 4.8
2015-Jun-15 07:33N 49°04' W 126°33'5 5.3
2015-Jun-15 06:33N 49°07' W 126°39'5 5.1
2015-Jun-15 05:33N 49°10' W 126°46'7 6.8
2015-Jun-15 04:33N 49°10' W 126°57'  
2015-Jun-12 20:33N 50°53' W 128°10'5 4.3
2015-Jun-12 19:28N 50°54' W 128°03'9 9.3
2015-Jun-12 18:33N 50°52' W 127°50'1111.4
2015-Jun-12 17:33N 50°48' W 127°33'4 3.8
2015-Jun-12 16:33N 50°46' W 127°28'2 2.1
2015-Jun-12 15:31N 50°44' W 127°28'1 0.1
2015-Jun-12 06:16N 50°43' W 127°29'0 0.0
2015-Jun-12 04:22N 50°43' W 127°29'0 0.0
2015-Jun-12 03:16N 50°43' W 127°29'0 0.0
2015-Jun-12 02:22N 50°43' W 127°29'0 0.0
2015-Jun-12 01:22N 50°43' W 127°29'1 0.1
2015-Jun-11 18:19N 50°43' W 127°28'1 0.7
2015-Jun-11 17:31N 50°43' W 127°28'0 0.0
2015-Jun-11 16:31N 50°43' W 127°28'0 0.4
2015-Jun-11 15:33N 50°44' W 127°28'9 8.7
2015-Jun-11 14:33N 50°49' W 127°38'2 1.7
2015-Jun-11 13:28N 50°51' W 127°40'0 0.0
2015-Jun-11 12:22N 50°51' W 127°40'0 0.0
2015-Jun-11 11:28N 50°51' W 127°40'0 0.0
2015-Jun-11 10:28N 50°51' W 127°40'0 0.0
2015-Jun-11 09:28N 50°51' W 127°40'0 0.0
2015-Jun-11 08:16N 50°51' W 127°40'0 0.0
2015-Jun-11 07:28N 50°51' W 127°40'0 0.0
2015-Jun-11 06:28N 50°51' W 127°40'0 0.0
2015-Jun-11 05:28N 50°51' W 127°40'0 0.0
2015-Jun-11 04:28N 50°51' W 127°40'0 0.0
2015-Jun-11 03:28N 50°51' W 127°40'0 0.0
2015-Jun-11 02:28N 50°51' W 127°40'  

Dump ship's entire track history